Time;durP1;ratioP1;P1;durP2;ratioP2;P2;SDS_P1;SDS_P2;PMS_P1;PMS_P2;Temp;Humidity;BMP_temperature;BMP_pressure;BME280_temperature;BME280_humidity;BME280_pressure;Samples;Min_cycle;Max_cycle;Signal;HPM_P1;HPM_P2
2023/01/17 00:00:47;;;;;;;4.43;3.23;;;;;;;;;;6289399;28;20305;-79
2023/01/17 00:10:41;;;;;;;4.60;3.20;;;;;;;;;;6292928;28;20297;-79
2023/01/17 00:13:46;;;;;;;3.10;2.90;;;;;;;;;;6305624;28;20265;-79
2023/01/17 00:16:51;;;;;;;8.43;3.10;;;;;;;;;;6305888;28;20231;-80
2023/01/17 01:36:23;;;;;;;3.70;1.90;;;;;;;;;;6286694;28;20556;-80
2023/01/17 01:39:28;;;;;;;3.60;2.50;;;;;;;;;;6286561;28;20313;-80
2023/01/17 01:42:33;;;;;;;2.70;2.50;;;;;;;;;;6286454;28;20273;-80
2023/01/17 01:45:40;;;;;;;2.87;2.60;;;;;;;;;;6286046;28;20301;-80
2023/01/17 01:48:49;;;;;;;5.13;2.63;;;;;;;;;;6286094;28;20296;-80
2023/01/17 01:51:57;;;;;;;4.50;2.10;;;;;;;;;;6268964;28;20301;-79
2023/01/17 01:55:06;;;;;;;2.73;2.37;;;;;;;;;;6285493;28;20304;-80
2023/01/17 01:58:15;;;;;;;5.80;2.70;;;;;;;;;;6285368;28;20287;-80
2023/01/17 02:01:21;;;;;;;3.50;2.50;;;;;;;;;;6286444;28;20292;-79
2023/01/17 02:04:27;;;;;;;2.70;2.60;;;;;;;;;;6285528;28;20284;-79
2023/01/17 02:07:36;;;;;;;4.50;2.60;;;;;;;;;;6286429;28;20293;-80
2023/01/17 02:10:43;;;;;;;5.27;2.50;;;;;;;;;;6284923;28;20332;-81
2023/01/17 02:13:48;;;;;;;2.13;2.10;;;;;;;;;;6285478;28;20293;-82
2023/01/17 02:17:07;;;;;;;2.93;2.70;;;;;;;;;;6285784;28;20270;-81
2023/01/17 02:20:30;;;;;;;2.67;2.47;;;;;;;;;;6285549;28;20297;-80
2023/01/17 02:23:53;;;;;;;3.07;2.83;;;;;;;;;;6274576;28;20351;-80
2023/01/17 02:27:07;;;;;;;4.27;2.63;;;;;;;;;;6285149;28;20572;-81
2023/01/17 02:30:37;;;;;;;3.63;3.00;;;;;;;;;;6267740;28;20295;-81
2023/01/17 02:33:47;;;;;;;7.03;2.40;;;;;;;;;;6285177;28;20299;-81
2023/01/17 02:36:56;;;;;;;3.77;2.90;;;;;;;;;;6286098;28;20273;-81
2023/01/17 02:40:07;;;;;;;4.53;2.53;;;;;;;;;;6284876;28;20594;-80
2023/01/17 02:43:15;;;;;;;7.77;3.03;;;;;;;;;;6284976;28;20280;-80
2023/01/17 02:46:23;;;;;;;5.70;3.40;;;;;;;;;;6285758;28;20288;-81
2023/01/17 02:49:31;;;;;;;6.57;2.77;;;;;;;;;;6285179;28;20298;-80
2023/01/17 02:52:49;;;;;;;9.13;3.20;;;;;;;;;;6283716;28;20294;-80
2023/01/17 02:55:59;;;;;;;5.63;3.00;;;;;;;;;;6266786;28;20302;-80
2023/01/17 02:59:15;;;;;;;6.57;3.80;;;;;;;;;;6260446;28;20620;-80
2023/01/17 03:02:27;;;;;;;3.10;2.90;;;;;;;;;;6277088;28;20335;-79
2023/01/17 03:05:36;;;;;;;6.03;3.37;;;;;;;;;;6285046;28;20293;-80
2023/01/17 03:08:46;;;;;;;7.50;2.77;;;;;;;;;;6284366;28;20304;-80
2023/01/17 03:11:51;;;;;;;7.10;2.93;;;;;;;;;;6282975;28;20287;-82
2023/01/17 03:14:57;;;;;;;3.00;2.80;;;;;;;;;;6284540;28;20454;-81
2023/01/17 03:18:06;;;;;;;2.93;2.70;;;;;;;;;;6284464;28;20271;-81
2023/01/17 03:21:11;;;;;;;3.87;2.80;;;;;;;;;;6284710;28;20274;-81
2023/01/17 03:24:16;;;;;;;4.10;2.90;;;;;;;;;;6271962;28;20286;-80
2023/01/17 03:27:21;;;;;;;6.70;2.60;;;;;;;;;;6289984;28;20270;-80
2023/01/17 03:30:27;;;;;;;2.93;2.60;;;;;;;;;;6289979;28;20298;-79
2023/01/17 03:33:33;;;;;;;4.03;2.77;;;;;;;;;;6288582;28;20313;-80
2023/01/17 03:36:38;;;;;;;4.10;2.77;;;;;;;;;;6289875;28;20564;-79
2023/01/17 03:39:46;;;;;;;3.23;2.90;;;;;;;;;;6289915;28;20375;-81
2023/01/17 03:42:51;;;;;;;7.80;3.30;;;;;;;;;;6288773;28;20272;-80
2023/01/17 03:46:03;;;;;;;3.53;3.00;;;;;;;;;;6288597;28;20285;-79
2023/01/17 03:49:10;;;;;;;5.93;2.60;;;;;;;;;;6289027;28;20310;-81
2023/01/17 03:52:19;;;;;;;5.50;3.47;;;;;;;;;;6289704;28;20295;-81
2023/01/17 03:55:23;;;;;;;8.17;3.20;;;;;;;;;;6289575;28;20473;-81
2023/01/17 03:58:28;;;;;;;4.90;3.40;;;;;;;;;;6288766;28;20459;-81
2023/01/17 04:01:34;;;;;;;9.00;3.13;;;;;;;;;;6286766;28;20298;-81
2023/01/17 04:04:40;;;;;;;3.77;3.17;;;;;;;;;;6272636;28;20611;-81
2023/01/17 04:07:45;;;;;;;3.47;2.43;;;;;;;;;;6281197;28;20272;-81
2023/01/17 04:10:51;;;;;;;4.03;2.70;;;;;;;;;;6288541;28;20271;-81
2023/01/17 04:13:56;;;;;;;3.17;2.90;;;;;;;;;;6288073;28;20300;-80
2023/01/17 04:17:02;;;;;;;6.37;3.20;;;;;;;;;;6270958;28;20266;-80
2023/01/17 04:20:15;;;;;;;2.63;2.43;;;;;;;;;;6288108;28;20297;-80
2023/01/17 04:23:21;;;;;;;3.00;2.80;;;;;;;;;;6270753;28;20310;-81
2023/01/17 04:26:26;;;;;;;4.67;2.93;;;;;;;;;;6289032;28;20273;-81
2023/01/17 04:29:31;;;;;;;8.97;3.10;;;;;;;;;;6288199;28;20294;-80
2023/01/17 04:32:37;;;;;;;2.83;2.63;;;;;;;;;;6287724;28;20294;-81
2023/01/17 04:35:43;;;;;;;3.67;3.03;;;;;;;;;;6287367;28;20275;-81
2023/01/17 04:38:48;;;;;;;5.10;3.00;;;;;;;;;;6287646;28;20296;-80
2023/01/17 04:41:53;;;;;;;3.20;3.10;;;;;;;;;;6288412;28;20276;-80
2023/01/17 04:45:02;;;;;;;3.50;2.97;;;;;;;;;;6287980;28;20305;-80
2023/01/17 04:48:11;;;;;;;4.00;2.80;;;;;;;;;;6287936;28;20292;-80
2023/01/17 04:51:18;;;;;;;3.87;2.87;;;;;;;;;;6288237;28;20277;-80
2023/01/17 04:54:23;;;;;;;2.80;2.60;;;;;;;;;;6287136;28;20597;-80
2023/01/17 04:57:28;;;;;;;7.43;2.50;;;;;;;;;;6287703;28;20271;-80
2023/01/17 05:00:33;;;;;;;4.17;2.77;;;;;;;;;;6286615;28;20299;-80
2023/01/17 05:03:38;;;;;;;3.30;2.57;;;;;;;;;;6287084;28;20397;-81
2023/01/17 05:06:45;;;;;;;2.70;2.50;;;;;;;;;;6288087;28;20266;-81
2023/01/17 05:09:51;;;;;;;2.40;2.33;;;;;;;;;;6269075;28;20367;-81
2023/01/17 05:12:56;;;;;;;3.50;2.40;;;;;;;;;;6286886;28;20299;-80
2023/01/17 05:16:01;;;;;;;2.87;2.60;;;;;;;;;;6287260;28;20276;-81
2023/01/17 05:19:07;;;;;;;2.97;1.70;;;;;;;;;;6268900;28;20303;-81
2023/01/17 05:22:14;;;;;;;3.37;2.30;;;;;;;;;;6287099;28;20273;-81
2023/01/17 05:25:20;;;;;;;2.77;2.40;;;;;;;;;;6275810;28;20292;-80
2023/01/17 05:28:43;;;;;;;2.63;2.53;;;;;;;;;;6286883;28;20296;-79
2023/01/17 05:31:48;;;;;;;2.70;2.57;;;;;;;;;;6269216;28;20271;-80
2023/01/17 05:34:53;;;;;;;2.50;2.40;;;;;;;;;;6287134;28;20300;-80
2023/01/17 05:38:00;;;;;;;5.87;3.43;;;;;;;;;;6286744;28;20283;-80
2023/01/17 05:41:07;;;;;;;6.33;2.77;;;;;;;;;;6287024;28;20465;-81
2023/01/17 05:44:15;;;;;;;2.30;2.10;;;;;;;;;;6286521;28;20298;-81
2023/01/17 05:47:20;;;;;;;2.53;2.43;;;;;;;;;;6287643;28;20276;-81
2023/01/17 05:50:28;;;;;;;5.83;2.47;;;;;;;;;;6269799;28;20292;-80
2023/01/17 05:53:34;;;;;;;2.57;2.40;;;;;;;;;;6286242;28;20302;-82
2023/01/17 05:56:40;;;;;;;5.30;2.20;;;;;;;;;;6287393;28;20276;-81
2023/01/17 05:59:45;;;;;;;3.40;2.37;;;;;;;;;;6295980;28;20295;-80
2023/01/17 06:02:52;;;;;;;2.97;2.63;;;;;;;;;;6301983;28;20250;-79
2023/01/17 06:05:57;;;;;;;5.13;2.47;;;;;;;;;;6303200;28;20230;-79
2023/01/17 06:09:04;;;;;;;5.07;2.87;;;;;;;;;;6290341;28;20333;-81
2023/01/17 06:12:10;;;;;;;2.87;2.67;;;;;;;;;;6280716;28;20268;-81
2023/01/17 06:15:17;;;;;;;5.23;2.67;;;;;;;;;;6269291;28;20304;-82
2023/01/17 06:18:22;;;;;;;4.70;3.00;;;;;;;;;;6286419;28;20286;-81
2023/01/17 06:21:29;;;;;;;5.27;3.23;;;;;;;;;;6286447;28;20268;-78
2023/01/17 06:24:36;;;;;;;3.00;2.80;;;;;;;;;;6269886;28;20487;-81
2023/01/17 06:27:44;;;;;;;2.50;2.40;;;;;;;;;;6256023;28;20251;-83
2023/01/17 06:30:49;;;;;;;3.23;3.03;;;;;;;;;;6288074;28;20282;-81
2023/01/17 06:33:55;;;;;;;4.40;3.10;;;;;;;;;;6267172;28;20313;-82
2023/01/17 06:37:00;;;;;;;8.63;3.03;;;;;;;;;;6268255;28;20269;-78
2023/01/17 06:40:08;;;;;;;3.13;2.93;;;;;;;;;;6285618;28;20291;-82
2023/01/17 06:43:14;;;;;;;5.00;3.00;;;;;;;;;;6285778;28;20300;-80
2023/01/17 06:46:20;;;;;;;3.40;3.10;;;;;;;;;;6286258;28;20294;-80
2023/01/17 06:49:25;;;;;;;6.37;3.07;;;;;;;;;;6252241;28;20295;-82
2023/01/17 06:52:30;;;;;;;3.47;3.17;;;;;;;;;;6286422;28;20555;-84
2023/01/17 06:55:39;;;;;;;3.80;3.10;;;;;;;;;;6259331;28;20290;-85
2023/01/17 06:58:44;;;;;;;4.43;2.97;;;;;;;;;;6271006;28;20591;-80
2023/01/17 07:01:49;;;;;;;3.30;3.10;;;;;;;;;;6294250;28;20265;-79
2023/01/17 07:04:55;;;;;;;3.50;3.20;;;;;;;;;;6284643;28;20284;-79
2023/01/17 07:08:00;;;;;;;4.80;3.20;;;;;;;;;;6285827;28;20307;-79
2023/01/17 07:11:08;;;;;;;6.03;2.87;;;;;;;;;;6285724;28;20266;-82
2023/01/17 07:14:15;;;;;;;8.83;3.53;;;;;;;;;;6284642;28;20300;-81
2023/01/17 07:17:21;;;;;;;4.70;2.87;;;;;;;;;;6285630;28;20276;-81
2023/01/17 07:20:26;;;;;;;3.40;3.20;;;;;;;;;;6274856;28;20322;-81
2023/01/17 07:23:32;;;;;;;3.47;3.27;;;;;;;;;;6284392;28;20291;-80
2023/01/17 07:26:39;;;;;;;4.97;3.50;;;;;;;;;;6285308;28;20298;-80
2023/01/17 07:29:44;;;;;;;4.73;3.30;;;;;;;;;;6285362;28;20294;-80
2023/01/17 07:32:52;;;;;;;6.90;3.33;;;;;;;;;;6267652;28;20278;-80
2023/01/17 07:36:05;;;;;;;4.03;3.63;;;;;;;;;;6285292;28;20300;-79
2023/01/17 07:39:11;;;;;;;4.77;3.23;;;;;;;;;;6285364;28;20307;-83
2023/01/17 07:42:18;;;;;;;7.67;3.73;;;;;;;;;;6268429;28;20492;-82
2023/01/17 07:45:23;;;;;;;6.63;4.17;;;;;;;;;;6276934;28;20588;-82
2023/01/17 07:48:28;;;;;;;4.90;4.33;;;;;;;;;;6267635;28;20291;-81
2023/01/17 07:51:34;;;;;;;3.73;3.43;;;;;;;;;;6285666;28;20268;-81
2023/01/17 07:54:40;;;;;;;5.83;3.30;;;;;;;;;;6266548;28;20299;-80
2023/01/17 07:57:49;;;;;;;3.43;3.13;;;;;;;;;;6283959;28;20273;-80
2023/01/17 08:00:55;;;;;;;3.77;3.17;;;;;;;;;;6266577;28;20306;-81
2023/01/17 08:04:00;;;;;;;3.60;3.20;;;;;;;;;;6267318;28;20299;-80
2023/01/17 08:07:07;;;;;;;4.43;3.10;;;;;;;;;;6287805;28;20481;-81
2023/01/17 08:10:16;;;;;;;4.70;4.00;;;;;;;;;;6286351;28;20284;-80
2023/01/17 08:13:23;;;;;;;3.90;3.70;;;;;;;;;;6266219;28;20575;-80
2023/01/17 08:16:29;;;;;;;6.77;3.23;;;;;;;;;;6265131;28;20292;-80
2023/01/17 08:19:34;;;;;;;3.53;3.33;;;;;;;;;;6264333;28;20399;-79
2023/01/17 08:22:39;;;;;;;3.27;2.97;;;;;;;;;;6263912;28;20276;-79
2023/01/17 08:25:45;;;;;;;3.97;3.30;;;;;;;;;;6246755;28;20279;-80
2023/01/17 08:28:55;;;;;;;3.90;3.60;;;;;;;;;;6264216;28;20292;-80
2023/01/17 08:32:01;;;;;;;3.60;3.30;;;;;;;;;;6264536;28;20271;-80
2023/01/17 08:35:08;;;;;;;3.80;3.27;;;;;;;;;;6253255;28;20306;-79
2023/01/17 08:38:14;;;;;;;3.90;3.03;;;;;;;;;;6268522;28;20306;-80
2023/01/17 08:41:21;;;;;;;4.27;3.53;;;;;;;;;;6271711;28;20226;-81
2023/01/17 08:44:28;;;;;;;5.67;3.50;;;;;;;;;;6279601;28;20265;-81
2023/01/17 08:47:33;;;;;;;5.80;4.13;;;;;;;;;;6279936;28;20228;-80
2023/01/17 08:50:38;;;;;;;5.53;3.80;;;;;;;;;;6280762;28;20244;-82
2023/01/17 08:53:44;;;;;;;3.93;3.20;;;;;;;;;;6268510;28;20610;-83
2023/01/17 08:56:51;;;;;;;6.07;3.77;;;;;;;;;;6265677;28;20299;-80
2023/01/17 08:59:58;;;;;;;5.07;3.40;;;;;;;;;;6265246;28;20471;-82
2023/01/17 09:03:04;;;;;;;6.10;3.23;;;;;;;;;;6264635;28;20464;-82
2023/01/17 09:06:13;;;;;;;6.27;3.80;;;;;;;;;;6264280;28;20272;-81
2023/01/17 09:09:18;;;;;;;4.67;3.47;;;;;;;;;;6263905;28;20291;-81
2023/01/17 09:12:23;;;;;;;4.83;3.90;;;;;;;;;;6263579;28;20266;-80
2023/01/17 09:15:30;;;;;;;7.17;3.60;;;;;;;;;;6262960;28;20303;-80
2023/01/17 09:18:36;;;;;;;5.40;4.10;;;;;;;;;;6262270;28;20295;-82
2023/01/17 09:21:41;;;;;;;6.17;4.10;;;;;;;;;;6261954;28;20455;-80
2023/01/17 09:24:46;;;;;;;7.63;4.97;;;;;;;;;;6262636;28;20296;-80
2023/01/17 09:27:51;;;;;;;5.20;4.43;;;;;;;;;;6260780;28;20312;-80
2023/01/17 09:30:58;;;;;;;11.33;4.13;;;;;;;;;;6263020;28;20263;-80
2023/01/17 09:34:03;;;;;;;7.30;4.47;;;;;;;;;;6262069;28;20302;-80
2023/01/17 09:37:11;;;;;;;4.70;4.30;;;;;;;;;;6262003;28;20295;-80
2023/01/17 09:40:20;;;;;;;9.90;4.77;;;;;;;;;;6260547;28;20297;-80
2023/01/17 09:43:30;;;;;;;9.40;4.57;;;;;;;;;;6261821;28;20595;-80
2023/01/17 09:46:39;;;;;;;7.10;4.70;;;;;;;;;;6261570;28;20275;-80
2023/01/17 09:49:45;;;;;;;6.23;4.70;;;;;;;;;;6261218;28;20302;-79
2023/01/17 09:52:51;;;;;;;11.83;5.00;;;;;;;;;;6261665;28;20280;-80
2023/01/17 09:55:59;;;;;;;5.00;4.57;;;;;;;;;;6262047;28;20302;-81
2023/01/17 09:59:18;;;;;;;9.90;4.87;;;;;;;;;;6262036;28;20299;-81
2023/01/17 10:02:50;;;;;;;7.33;4.13;;;;;;;;;;6243964;28;20297;-81
2023/01/17 10:06:08;;;;;;;5.13;4.33;;;;;;;;;;6261142;28;20275;-81
2023/01/17 10:09:43;;;;;;;8.50;4.50;;;;;;;;;;6260889;28;20600;-82
2023/01/17 10:12:53;;;;;;;5.27;4.17;;;;;;;;;;6218907;28;20275;-81
2023/01/17 10:16:13;;;;;;;9.17;4.60;;;;;;;;;;6236819;28;20582;-81
2023/01/17 10:19:40;;;;;;;5.00;4.17;;;;;;;;;;6236246;28;20299;-81
2023/01/17 10:23:02;;;;;;;5.33;4.60;;;;;;;;;;6231669;28;20268;-80
2023/01/17 10:26:10;;;;;;;6.00;4.13;;;;;;;;;;6236372;28;20278;-81
2023/01/17 10:29:18;;;;;;;5.77;4.57;;;;;;;;;;6236444;28;20483;-81
2023/01/17 10:32:29;;;;;;;4.50;3.80;;;;;;;;;;6218059;28;20564;-80
2023/01/17 10:35:38;;;;;;;7.87;3.83;;;;;;;;;;6234540;28;20303;-79
2023/01/17 10:38:47;;;;;;;3.93;3.47;;;;;;;;;;6236357;28;20311;-82
2023/01/17 10:41:57;;;;;;;6.27;3.90;;;;;;;;;;6236310;28;20275;-81
2023/01/17 10:45:06;;;;;;;4.23;3.73;;;;;;;;;;6235808;28;20295;-80
2023/01/17 10:48:15;;;;;;;6.00;3.20;;;;;;;;;;6235764;28;20299;-82
2023/01/17 10:51:33;;;;;;;4.00;3.80;;;;;;;;;;6228544;28;20270;-80
2023/01/17 10:54:48;;;;;;;5.93;3.30;;;;;;;;;;6218421;28;20303;-81
2023/01/17 10:57:54;;;;;;;4.67;3.60;;;;;;;;;;6202216;28;20564;-80
2023/01/17 11:01:02;;;;;;;6.67;4.13;;;;;;;;;;6241949;28;20307;-76
2023/01/17 11:04:19;;;;;;;7.27;3.37;;;;;;;;;;6236387;28;20294;-80
2023/01/17 11:07:27;;;;;;;3.93;3.33;;;;;;;;;;6236567;28;20272;-84
2023/01/17 11:10:39;;;;;;;3.80;3.53;;;;;;;;;;6244118;28;20295;-82
2023/01/17 11:13:47;;;;;;;3.97;3.70;;;;;;;;;;6259518;28;20296;-80
2023/01/17 11:17:00;;;;;;;3.70;3.50;;;;;;;;;;6243120;28;20610;-79
2023/01/17 11:20:18;;;;;;;4.33;4.00;;;;;;;;;;6241787;28;20616;-79
2023/01/17 11:23:31;;;;;;;8.07;3.77;;;;;;;;;;6252262;28;20576;-80
2023/01/17 11:26:37;;;;;;;5.40;3.10;;;;;;;;;;6260557;28;20277;-80
2023/01/17 11:29:42;;;;;;;4.07;3.30;;;;;;;;;;6242235;28;20296;-81
2023/01/17 11:32:52;;;;;;;3.20;3.00;;;;;;;;;;6259993;28;20405;-79
2023/01/17 11:35:57;;;;;;;3.40;2.80;;;;;;;;;;6259971;28;20275;-80
2023/01/17 11:39:06;;;;;;;3.10;2.90;;;;;;;;;;6261048;28;20302;-80
2023/01/17 11:42:31;;;;;;;3.30;3.00;;;;;;;;;;6243303;28;20266;-79
2023/01/17 11:45:37;;;;;;;7.60;3.23;;;;;;;;;;6264816;28;20272;-79
2023/01/17 11:48:43;;;;;;;3.87;3.57;;;;;;;;;;6274742;28;20242;-79
2023/01/17 11:51:48;;;;;;;5.70;4.70;;;;;;;;;;6282366;28;20214;-79
2023/01/17 11:54:56;;;;;;;3.50;2.60;;;;;;;;;;6263807;28;20287;-81
2023/01/17 11:58:01;;;;;;;3.30;3.00;;;;;;;;;;6270529;28;20294;-78
2023/01/17 12:01:19;;;;;;;3.00;2.90;;;;;;;;;;6274033;28;20293;-79
2023/01/17 12:04:28;;;;;;;3.50;3.10;;;;;;;;;;6289414;28;20290;-80
2023/01/17 12:07:37;;;;;;;3.40;2.83;;;;;;;;;;6271135;28;20301;-79
2023/01/17 12:10:53;;;;;;;2.97;2.77;;;;;;;;;;6289253;28;20274;-81
2023/01/17 12:14:03;;;;;;;2.87;2.60;;;;;;;;;;6288435;28;20505;-79
2023/01/17 12:17:18;;;;;;;3.27;2.80;;;;;;;;;;6288711;28;20284;-79
2023/01/17 12:20:28;;;;;;;2.40;2.30;;;;;;;;;;6287907;28;20300;-79
2023/01/17 12:23:54;;;;;;;2.47;2.37;;;;;;;;;;6266754;28;20294;-80
2023/01/17 12:27:08;;;;;;;2.33;2.23;;;;;;;;;;6246210;28;20441;-79
2023/01/17 12:30:29;;;;;;;5.23;2.40;;;;;;;;;;6262058;28;20295;-79
2023/01/17 12:33:44;;;;;;;2.53;2.40;;;;;;;;;;6263754;28;20481;-79
2023/01/17 12:36:53;;;;;;;2.50;2.23;;;;;;;;;;6230353;28;20592;-78
2023/01/17 12:40:00;;;;;;;3.37;2.07;;;;;;;;;;6245778;28;20318;-78
2023/01/17 12:43:12;;;;;;;1.80;1.70;;;;;;;;;;6263434;28;20293;-79
2023/01/17 12:46:27;;;;;;;3.20;1.90;;;;;;;;;;6264826;28;20275;-79
2023/01/17 12:49:40;;;;;;;1.90;1.80;;;;;;;;;;6246357;28;20303;-79
2023/01/17 12:52:54;;;;;;;2.63;1.63;;;;;;;;;;6263216;28;20572;-79
2023/01/17 12:56:04;;;;;;;2.07;1.73;;;;;;;;;;6262995;28;20271;-78
2023/01/17 12:59:15;;;;;;;2.67;1.90;;;;;;;;;;6264510;28;20303;-79
2023/01/17 13:02:30;;;;;;;2.47;1.50;;;;;;;;;;6220985;28;20302;-78
2023/01/17 13:05:39;;;;;;;1.33;1.33;;;;;;;;;;6238865;28;20270;-79
2023/01/17 13:08:46;;;;;;;2.87;1.43;;;;;;;;;;6241845;28;20300;-81
2023/01/17 13:12:01;;;;;;;3.87;1.27;;;;;;;;;;6262212;28;20262;-80
2023/01/17 13:15:15;;;;;;;2.60;1.13;;;;;;;;;;6262496;28;20298;-78
2023/01/17 13:18:24;;;;;;;1.40;1.40;;;;;;;;;;6262880;28;20304;-81
2023/01/17 13:21:31;;;;;;;1.20;1.20;;;;;;;;;;6263462;28;20271;-80
2023/01/17 13:24:44;;;;;;;1.40;1.30;;;;;;;;;;6245569;28;20296;-80
2023/01/17 13:28:03;;;;;;;1.90;1.20;;;;;;;;;;6268417;28;20270;-80
2023/01/17 13:31:30;;;;;;;1.83;1.50;;;;;;;;;;6279608;28;20236;-79
2023/01/17 13:34:51;;;;;;;1.20;1.20;;;;;;;;;;6265245;28;20257;-79
2023/01/17 13:38:22;;;;;;;1.13;1.10;;;;;;;;;;6263776;28;20299;-81
2023/01/17 13:41:42;;;;;;;2.70;1.30;;;;;;;;;;6262591;28;20273;-80
2023/01/17 13:44:48;;;;;;;1.43;1.40;;;;;;;;;;6261779;28;20303;-80
2023/01/17 13:48:30;;;;;;;1.13;1.10;;;;;;;;;;6244220;28;20477;-79
2023/01/17 13:52:01;;;;;;;2.87;1.30;;;;;;;;;;6262067;28;20275;-79
2023/01/17 13:55:08;;;;;;;1.47;1.37;;;;;;;;;;6261265;28;20296;-79
2023/01/17 13:58:28;;;;;;;2.60;1.30;;;;;;;;;;6261628;28;20302;-80
2023/01/17 14:01:52;;;;;;;1.90;1.50;;;;;;;;;;6254399;28;20366;-79
2023/01/17 14:05:11;;;;;;;3.00;1.50;;;;;;;;;;6286184;28;20298;-79
2023/01/17 14:08:19;;;;;;;1.60;1.40;;;;;;;;;;6286023;28;20492;-80
2023/01/17 14:11:24;;;;;;;1.90;1.63;;;;;;;;;;6279222;28;20595;-78
2023/01/17 14:14:44;;;;;;;1.70;1.60;;;;;;;;;;6268276;28;20303;-79
2023/01/17 14:17:55;;;;;;;3.07;1.60;;;;;;;;;;6285552;28;20430;-78
2023/01/17 14:21:08;;;;;;;2.83;1.70;;;;;;;;;;6268527;28;20267;-79
2023/01/17 14:24:16;;;;;;;3.50;1.67;;;;;;;;;;6268180;28;20299;-79
2023/01/17 14:27:24;;;;;;;4.30;1.87;;;;;;;;;;6285665;28;20276;-81
2023/01/17 14:30:35;;;;;;;1.63;1.63;;;;;;;;;;6266983;28;20300;-79
2023/01/17 14:33:41;;;;;;;1.50;1.50;;;;;;;;;;6285246;28;20297;-80
2023/01/17 14:36:50;;;;;;;1.50;1.50;;;;;;;;;;6283459;28;20274;-79
2023/01/17 14:39:57;;;;;;;2.07;1.50;;;;;;;;;;6285433;28;20283;-79
2023/01/17 14:43:07;;;;;;;2.00;1.80;;;;;;;;;;6267221;28;20376;-80
2023/01/17 14:46:18;;;;;;;1.83;1.70;;;;;;;;;;6285772;28;20281;-80
2023/01/17 14:49:25;;;;;;;3.73;1.70;;;;;;;;;;6285031;28;20378;-80
2023/01/17 14:52:32;;;;;;;2.87;1.43;;;;;;;;;;6285462;28;20267;-80
2023/01/17 14:55:38;;;;;;;1.47;1.40;;;;;;;;;;6283529;28;20288;-80
2023/01/17 14:58:45;;;;;;;1.77;1.77;;;;;;;;;;6284942;28;20302;-80
2023/01/17 15:01:52;;;;;;;3.47;1.60;;;;;;;;;;6285287;28;20299;-80
2023/01/17 15:05:16;;;;;;;1.67;1.50;;;;;;;;;;6285373;28;20287;-80
2023/01/17 15:08:25;;;;;;;1.63;1.53;;;;;;;;;;6285251;28;20294;-82
2023/01/17 15:11:32;;;;;;;1.73;1.63;;;;;;;;;;6278769;28;20259;-81
2023/01/17 15:14:39;;;;;;;1.73;1.67;;;;;;;;;;6285099;28;20481;-80
2023/01/17 15:17:45;;;;;;;1.40;1.40;;;;;;;;;;6267689;28;20448;-81
2023/01/17 15:20:58;;;;;;;4.67;1.60;;;;;;;;;;6290640;28;20279;-82
2023/01/17 15:24:07;;;;;;;3.27;1.87;;;;;;;;;;6272770;28;20295;-80
2023/01/17 15:27:15;;;;;;;4.03;1.70;;;;;;;;;;6273328;28;20271;-80
2023/01/17 15:30:23;;;;;;;3.53;1.80;;;;;;;;;;6271975;28;20657;-81
2023/01/17 15:33:30;;;;;;;1.47;1.47;;;;;;;;;;6289036;28;20299;-81
2023/01/17 15:36:35;;;;;;;1.73;1.40;;;;;;;;;;6289820;28;20274;-80
2023/01/17 15:39:42;;;;;;;1.60;1.60;;;;;;;;;;6271584;28;20325;-80
2023/01/17 15:42:49;;;;;;;1.20;1.10;;;;;;;;;;6288955;28;20546;-79
2023/01/17 15:45:55;;;;;;;1.80;1.70;;;;;;;;;;6289539;28;20277;-81
2023/01/17 15:49:18;;;;;;;2.83;1.60;;;;;;;;;;6289334;28;20297;-81
2023/01/17 15:52:23;;;;;;;2.73;1.47;;;;;;;;;;6288836;28;20270;-81
2023/01/17 15:55:36;;;;;;;1.40;1.40;;;;;;;;;;6288613;28;20299;-81
2023/01/17 15:58:42;;;;;;;2.07;1.90;;;;;;;;;;6287644;28;20303;-81
2023/01/17 16:01:54;;;;;;;1.47;1.47;;;;;;;;;;6288699;28;20303;-81
2023/01/17 16:05:00;;;;;;;1.90;1.90;;;;;;;;;;6288274;28;20481;-80
2023/01/17 16:08:25;;;;;;;3.17;1.57;;;;;;;;;;6288457;28;20309;-80
2023/01/17 16:11:31;;;;;;;1.70;1.60;;;;;;;;;;6271282;28;20551;-80
2023/01/17 16:14:37;;;;;;;1.70;1.60;;;;;;;;;;6271039;28;20290;-81
2023/01/17 16:18:06;;;;;;;1.60;1.50;;;;;;;;;;6270979;28;20579;-81
2023/01/17 16:21:19;;;;;;;1.73;1.73;;;;;;;;;;6289356;28;20540;-80
2023/01/17 16:24:24;;;;;;;3.90;1.50;;;;;;;;;;6288213;28;20301;-81
2023/01/17 16:27:31;;;;;;;1.70;1.60;;;;;;;;;;6288322;28;20269;-81
2023/01/17 16:30:36;;;;;;;3.03;1.80;;;;;;;;;;6268669;28;20275;-81
2023/01/17 16:33:42;;;;;;;1.57;1.57;;;;;;;;;;6287574;28;20303;-80
2023/01/17 16:36:52;;;;;;;1.60;1.60;;;;;;;;;;6270800;28;20271;-80
2023/01/17 16:40:02;;;;;;;1.90;1.90;;;;;;;;;;6288007;28;20302;-81
2023/01/17 16:43:10;;;;;;;1.70;1.60;;;;;;;;;;6289026;28;20582;-80
2023/01/17 16:46:19;;;;;;;1.57;1.53;;;;;;;;;;6270874;28;20275;-80
2023/01/17 16:49:25;;;;;;;2.53;1.70;;;;;;;;;;6287604;28;20300;-81
2023/01/17 16:52:30;;;;;;;1.67;1.63;;;;;;;;;;6288052;28;20474;-80
2023/01/17 16:55:35;;;;;;;1.70;1.60;;;;;;;;;;6286476;28;20595;-83
2023/01/17 16:58:42;;;;;;;1.60;1.50;;;;;;;;;;6287057;28;20318;-81
2023/01/17 17:01:51;;;;;;;2.07;1.97;;;;;;;;;;6288238;28;20318;-80
2023/01/17 17:05:04;;;;;;;1.87;1.87;;;;;;;;;;6256670;28;20610;-81
2023/01/17 17:08:10;;;;;;;2.00;1.70;;;;;;;;;;6287010;28;20289;-81
2023/01/17 17:11:16;;;;;;;2.20;2.00;;;;;;;;;;6269753;28;20267;-79
2023/01/17 17:14:23;;;;;;;2.00;2.00;;;;;;;;;;6287738;28;20472;-80
2023/01/17 17:17:28;;;;;;;2.80;2.00;;;;;;;;;;6287533;28;20341;-80
2023/01/17 17:20:34;;;;;;;2.47;2.00;;;;;;;;;;6286706;28;20306;-82
2023/01/17 17:23:41;;;;;;;2.60;2.40;;;;;;;;;;6269624;28;20306;-81
2023/01/17 17:26:47;;;;;;;1.93;1.83;;;;;;;;;;6287245;28;20278;-80
2023/01/17 17:29:54;;;;;;;3.30;2.67;;;;;;;;;;6269001;28;20318;-82
2023/01/17 17:33:03;;;;;;;2.50;2.30;;;;;;;;;;6300965;28;20258;-81
2023/01/17 17:36:10;;;;;;;4.00;2.20;;;;;;;;;;6303024;28;20216;-82
2023/01/17 17:39:15;;;;;;;2.83;2.73;;;;;;;;;;6303074;28;20246;-80
2023/01/17 17:42:29;;;;;;;2.70;2.50;;;;;;;;;;6303102;28;20215;-80
2023/01/17 17:45:37;;;;;;;2.73;2.57;;;;;;;;;;6276054;28;20247;-81
2023/01/17 17:48:46;;;;;;;1.73;1.73;;;;;;;;;;6298099;28;20251;-81
2023/01/17 17:51:52;;;;;;;2.80;2.60;;;;;;;;;;6287100;28;20272;-83
2023/01/17 17:55:01;;;;;;;2.77;2.60;;;;;;;;;;6269461;28;20298;-81
2023/01/17 17:58:06;;;;;;;2.50;2.40;;;;;;;;;;6268304;28;20300;-81
2023/01/17 18:01:14;;;;;;;2.87;2.67;;;;;;;;;;6286072;28;20313;-81
2023/01/17 18:04:21;;;;;;;2.80;2.50;;;;;;;;;;6268649;28;20310;-82
2023/01/17 18:07:26;;;;;;;2.87;2.77;;;;;;;;;;6286506;28;20275;-82
2023/01/17 18:10:31;;;;;;;2.57;2.50;;;;;;;;;;6245545;28;20286;-82
2023/01/17 18:13:37;;;;;;;3.53;2.73;;;;;;;;;;6285446;28;20290;-83
2023/01/17 18:16:45;;;;;;;6.10;3.00;;;;;;;;;;6269622;28;20273;-80
2023/01/17 18:19:51;;;;;;;3.20;3.00;;;;;;;;;;6285521;28;20588;-80
2023/01/17 18:22:56;;;;;;;4.03;3.73;;;;;;;;;;6286293;28;20302;-80
2023/01/17 18:26:01;;;;;;;4.33;4.03;;;;;;;;;;6272061;28;20461;-81
2023/01/17 18:29:09;;;;;;;4.27;3.90;;;;;;;;;;6287826;28;20294;-80
2023/01/17 18:32:16;;;;;;;4.60;4.20;;;;;;;;;;6252336;28;20456;-82
2023/01/17 18:35:21;;;;;;;2.67;2.57;;;;;;;;;;6267910;28;20298;-84
2023/01/17 18:38:37;;;;;;;4.40;4.10;;;;;;;;;;6285371;28;20290;-83
2023/01/17 18:41:42;;;;;;;4.43;4.13;;;;;;;;;;6267885;28;20293;-77
2023/01/17 18:44:48;;;;;;;4.00;3.80;;;;;;;;;;6284997;28;20488;-81
2023/01/17 18:47:55;;;;;;;6.73;5.40;;;;;;;;;;6285654;28;20296;-80
2023/01/17 18:51:01;;;;;;;9.97;6.17;;;;;;;;;;6285672;28;20274;-78
2023/01/17 18:54:07;;;;;;;10.80;6.23;;;;;;;;;;6284063;28;20290;-78
2023/01/17 18:57:13;;;;;;;8.80;6.17;;;;;;;;;;6285486;28;20264;-78
2023/01/17 19:00:18;;;;;;;6.13;4.77;;;;;;;;;;6284555;28;20291;-77
2023/01/17 19:03:30;;;;;;;6.53;5.93;;;;;;;;;;6285037;28;20291;-77
2023/01/17 19:06:37;;;;;;;7.93;6.23;;;;;;;;;;6285008;28;20270;-78
2023/01/17 19:09:43;;;;;;;7.83;6.07;;;;;;;;;;6285177;28;20294;-79
2023/01/17 19:12:48;;;;;;;8.30;6.57;;;;;;;;;;6267429;28;20275;-79
2023/01/17 19:15:53;;;;;;;9.43;6.73;;;;;;;;;;6267679;28;20285;-79
2023/01/17 19:19:03;;;;;;;10.13;7.50;;;;;;;;;;6266798;28;20307;-78
2023/01/17 19:22:10;;;;;;;8.20;6.90;;;;;;;;;;6285026;28;20286;-80
2023/01/17 19:25:15;;;;;;;13.87;7.50;;;;;;;;;;6266967;28;20300;-79
2023/01/17 19:28:21;;;;;;;17.00;8.57;;;;;;;;;;6285146;28;20298;-80
2023/01/17 19:31:27;;;;;;;12.57;7.63;;;;;;;;;;6285016;28;20292;-80
2023/01/17 19:34:34;;;;;;;8.80;6.83;;;;;;;;;;6267619;28;20299;-80
2023/01/17 19:37:39;;;;;;;14.80;8.03;;;;;;;;;;6284832;28;20268;-80
2023/01/17 19:40:46;;;;;;;9.00;7.30;;;;;;;;;;6284988;28;20292;-82
2023/01/17 19:43:55;;;;;;;10.77;7.80;;;;;;;;;;6268380;28;20323;-80
2023/01/17 19:47:00;;;;;;;15.10;8.20;;;;;;;;;;6282200;28;20259;-79
2023/01/17 19:50:11;;;;;;;12.23;7.37;;;;;;;;;;6299036;28;20253;-81
2023/01/17 19:53:16;;;;;;;16.00;9.20;;;;;;;;;;6292709;28;20291;-79
2023/01/17 19:56:23;;;;;;;10.83;7.87;;;;;;;;;;6277370;28;20259;-80
2023/01/17 19:59:29;;;;;;;15.60;8.73;;;;;;;;;;6283460;28;20288;-79
2023/01/17 20:02:34;;;;;;;16.47;8.70;;;;;;;;;;6292955;28;20303;-79
2023/01/17 20:05:41;;;;;;;23.70;12.30;;;;;;;;;;6289149;28;20302;-80
2023/01/17 20:08:47;;;;;;;14.90;8.77;;;;;;;;;;6289370;28;20291;-80
2023/01/17 20:11:52;;;;;;;12.40;9.30;;;;;;;;;;6265107;28;20268;-80
2023/01/17 20:14:57;;;;;;;15.00;9.40;;;;;;;;;;6288423;28;20302;-81